285  
SXUS55 KMSO 171713  
OSOMSO  
MONTANA AWOS SUMMARY  
NATIONAL WEATHER SERVICE MISSOULA MT  
1013 AM MST SUN DEC 17 2017  
 
MONTANA AWOS REPORTS  
 
ROUNDUP |KRPX 171655Z AUTO 18010KT 40SM M04/M10 A2978 RMK AO1 T10381099  
 
CLICK HERE TO GO TO PREVIOUS BULLETINS.

The Nexlab MT Page
The Nexlab ID Page Main Text Page